createdAt,value
2023-05-17T00:00:01.443Z,12.97
2023-05-17T00:02:50.769Z,13.03
2023-05-17T00:05:22.152Z,13.01
2023-05-17T00:07:54.625Z,12.85
2023-05-17T00:10:24.038Z,12.95
2023-05-17T00:12:54.938Z,13.04
2023-05-17T00:15:23.160Z,13.14
2023-05-17T00:17:51.790Z,13.01
2023-05-17T00:20:22.902Z,12.90
2023-05-17T00:22:55.215Z,12.81
2023-05-17T00:25:26.118Z,12.94
2023-05-17T00:27:54.730Z,13.07
2023-05-17T00:30:22.995Z,12.92
2023-05-17T00:32:59.274Z,13.02
2023-05-17T00:35:30.214Z,12.99
2023-05-17T00:38:06.109Z,12.95
2023-05-17T00:40:39.798Z,12.98
2023-05-17T00:43:09.601Z,12.87
2023-05-17T00:45:41.887Z,13.02
2023-05-17T00:48:13.946Z,12.91
2023-05-17T00:50:49.977Z,12.88
2023-05-17T00:53:21.319Z,12.93
2023-05-17T00:55:51.242Z,12.89
2023-05-17T00:58:21.895Z,12.87
2023-05-17T01:00:51.670Z,12.88
2023-05-17T01:03:19.913Z,13.07
2023-05-17T01:05:51.585Z,12.86
2023-05-17T01:08:29.346Z,13.18
2023-05-17T01:11:04.199Z,13.01
2023-05-17T01:13:38.715Z,12.99
2023-05-17T01:16:19.013Z,12.92
2023-05-17T01:18:58.289Z,12.85
2023-05-17T01:21:59.417Z,12.75
2023-05-17T01:24:45.261Z,12.87
2023-05-17T01:27:19.499Z,13.03
2023-05-17T01:29:54.448Z,12.83
2023-05-17T01:32:22.703Z,13.14
2023-05-17T01:34:59.356Z,12.83
2023-05-17T01:37:37.489Z,12.70
2023-05-17T01:40:13.261Z,12.55
2023-05-17T01:42:57.511Z,12.65
2023-05-17T01:45:30.002Z,12.59
2023-05-17T01:48:13.952Z,12.62
2023-05-17T01:50:44.910Z,12.60
2023-05-17T01:53:26.574Z,12.51
2023-05-17T01:56:02.845Z,12.43
2023-05-17T01:58:44.083Z,12.51
2023-05-17T02:01:14.714Z,12.24
2023-05-17T02:03:48.028Z,12.49
2023-05-17T02:06:22.319Z,12.49
2023-05-17T02:08:54.636Z,12.35
2023-05-17T02:11:28.667Z,12.34
2023-05-17T02:14:00.880Z,12.26
2023-05-17T02:16:37.722Z,12.31
2023-05-17T02:19:07.728Z,12.32
2023-05-17T02:21:39.192Z,12.19
2023-05-17T02:24:19.580Z,12.33
2023-05-17T02:26:51.300Z,12.30
2023-05-17T02:29:29.109Z,12.15
2023-05-17T02:32:02.988Z,12.19
2023-05-17T02:34:36.856Z,12.39
2023-05-17T02:37:14.268Z,12.32
2023-05-17T02:40:02.421Z,12.07
2023-05-17T02:42:32.612Z,12.11
2023-05-17T02:45:14.778Z,11.95
2023-05-17T02:47:44.746Z,12.22
2023-05-17T02:50:16.791Z,12.15
2023-05-17T02:52:47.037Z,12.11
2023-05-17T02:55:20.677Z,12.06
2023-05-17T02:57:54.773Z,12.03
2023-05-17T03:00:31.545Z,11.90
2023-05-17T03:03:06.988Z,12.04
2023-05-17T03:05:36.061Z,12.00
2023-05-17T03:08:24.697Z,12.04
2023-05-17T03:10:55.319Z,12.03
2023-05-17T03:13:23.755Z,12.15
2023-05-17T03:15:56.753Z,11.98
2023-05-17T03:18:28.135Z,11.79
2023-05-17T03:20:56.966Z,11.81
2023-05-17T03:23:28.691Z,11.87
2023-05-17T03:26:08.541Z,11.83
2023-05-17T03:28:45.182Z,11.70
2023-05-17T03:31:20.725Z,11.74
2023-05-17T03:34:04.322Z,11.61
2023-05-17T03:36:37.770Z,11.58
2023-05-17T03:39:14.728Z,11.65
2023-05-17T03:41:48.056Z,11.46
2023-05-17T03:44:22.641Z,11.60
2023-05-17T03:46:55.664Z,11.53
2023-05-17T03:49:28.235Z,11.47
2023-05-17T03:52:05.306Z,11.53
2023-05-17T03:54:37.595Z,11.51
2023-05-17T03:57:06.360Z,11.45
2023-05-17T03:59:37.966Z,11.31
2023-05-17T04:02:09.446Z,11.38
2023-05-17T04:04:49.606Z,11.51
2023-05-17T04:07:27.495Z,11.65
2023-05-17T04:10:10.408Z,11.34
2023-05-17T04:12:42.053Z,11.42
2023-05-17T04:15:13.638Z,11.43
2023-05-17T04:17:54.943Z,11.47
2023-05-17T04:20:26.604Z,11.25
2023-05-17T04:22:55.058Z,11.34
2023-05-17T04:25:25.787Z,11.27
2023-05-17T04:27:58.126Z,11.16
2023-05-17T04:30:29.458Z,11.22
2023-05-17T04:33:01.132Z,11.28
2023-05-17T04:35:35.030Z,11.19
2023-05-17T04:38:07.292Z,11.07
2023-05-17T04:40:37.826Z,10.93
2023-05-17T04:43:16.347Z,11.20
2023-05-17T04:45:47.799Z,10.99
2023-05-17T04:48:21.537Z,10.85
2023-05-17T04:50:52.484Z,11.08
2023-05-17T04:53:21.098Z,11.21
2023-05-17T04:55:52.828Z,11.17
2023-05-17T04:58:24.736Z,11.08
2023-05-17T05:00:58.689Z,11.08
2023-05-17T05:03:38.970Z,11.17
2023-05-17T05:06:19.656Z,11.09
2023-05-17T05:09:03.984Z,10.87
2023-05-17T05:11:36.498Z,10.78
2023-05-17T05:14:09.472Z,10.82
2023-05-17T05:16:40.910Z,10.69
2023-05-17T05:19:22.838Z,10.72
2023-05-17T05:21:53.888Z,10.60
2023-05-17T05:24:30.385Z,10.56
2023-05-17T05:27:01.223Z,10.69
2023-05-17T05:29:38.904Z,10.77
2023-05-17T05:32:11.945Z,10.84
2023-05-17T05:34:50.962Z,10.62
2023-05-17T05:37:20.083Z,10.67
2023-05-17T05:40:07.004Z,10.46
2023-05-17T05:42:39.846Z,10.39
2023-05-17T05:45:11.155Z,10.44
2023-05-17T05:47:49.534Z,10.26
2023-05-17T05:50:31.334Z,10.40
2023-05-17T05:53:18.217Z,10.52
2023-05-17T05:56:12.932Z,10.60
2023-05-17T05:58:57.040Z,10.41
2023-05-17T06:01:30.225Z,10.59
2023-05-17T06:04:01.567Z,10.51
2023-05-17T06:06:42.671Z,10.47
2023-05-17T06:09:19.742Z,10.49
2023-05-17T06:11:50.412Z,10.40
2023-05-17T06:14:21.764Z,10.57
2023-05-17T06:16:50.405Z,10.67
2023-05-17T06:19:20.942Z,10.63
2023-05-17T06:21:54.682Z,10.68
2023-05-17T06:24:25.095Z,10.47
2023-05-17T06:26:56.489Z,10.46
2023-05-17T06:29:26.308Z,10.45
2023-05-17T06:32:06.460Z,10.42
2023-05-17T06:34:40.515Z,10.36
2023-05-17T06:37:17.421Z,10.45
2023-05-17T06:39:55.440Z,10.55
2023-05-17T06:42:30.027Z,10.42
2023-05-17T06:44:59.256Z,10.40
2023-05-17T06:47:28.758Z,10.53
2023-05-17T06:49:59.409Z,10.72
2023-05-17T06:52:29.724Z,10.80
2023-05-17T06:55:04.346Z,10.68
2023-05-17T06:57:33.660Z,10.52
2023-05-17T07:00:06.424Z,10.64
2023-05-17T07:02:42.995Z,10.42
2023-05-17T07:05:12.728Z,10.53
2023-05-17T07:07:48.051Z,10.34
2023-05-17T07:10:22.529Z,10.60
2023-05-17T07:12:53.138Z,10.62
2023-05-17T07:15:22.708Z,10.53
2023-05-17T07:17:51.278Z,10.48
2023-05-17T07:20:22.435Z,10.27
2023-05-17T07:22:53.672Z,10.42
2023-05-17T07:25:23.034Z,10.34
2023-05-17T07:27:53.685Z,10.33
2023-05-17T07:30:26.372Z,10.37
2023-05-17T07:32:58.141Z,10.36
2023-05-17T07:35:30.227Z,10.54
2023-05-17T07:38:08.307Z,10.56
2023-05-17T07:40:37.283Z,10.69
2023-05-17T07:43:08.929Z,10.63
2023-05-17T07:45:37.430Z,10.37
2023-05-17T07:48:09.805Z,10.47
2023-05-17T07:50:41.591Z,10.54
2023-05-17T07:53:21.516Z,10.44
2023-05-17T07:55:53.276Z,10.38
2023-05-17T07:58:21.288Z,10.42
2023-05-17T08:00:53.030Z,10.42
2023-05-17T08:03:23.594Z,10.35
2023-05-17T08:06:02.696Z,10.57
2023-05-17T08:08:35.048Z,10.74
2023-05-17T08:11:03.356Z,10.48
2023-05-17T08:13:31.533Z,10.36
2023-05-17T08:16:12.892Z,10.47
2023-05-17T08:18:46.339Z,10.71
2023-05-17T08:21:30.104Z,10.64
2023-05-17T08:24:03.965Z,10.54
2023-05-17T08:26:35.979Z,10.68
2023-05-17T08:29:07.829Z,10.50
2023-05-17T08:31:39.014Z,10.54
2023-05-17T08:34:07.478Z,10.61
2023-05-17T08:36:44.577Z,10.69
2023-05-17T08:39:16.715Z,10.67
2023-05-17T08:41:49.454Z,10.67
2023-05-17T08:44:27.004Z,10.61
2023-05-17T08:46:59.326Z,10.67
2023-05-17T08:49:31.346Z,10.63
2023-05-17T08:52:10.406Z,10.82
2023-05-17T08:54:42.982Z,10.79
2023-05-17T08:57:16.239Z,10.70
2023-05-17T08:59:59.256Z,10.84
2023-05-17T09:02:33.201Z,10.89
2023-05-17T09:05:07.615Z,10.73
2023-05-17T09:07:38.534Z,10.81
2023-05-17T09:10:20.484Z,10.65
2023-05-17T09:12:52.365Z,10.90
2023-05-17T09:15:27.742Z,10.99
2023-05-17T09:17:58.311Z,10.88
2023-05-17T09:20:34.223Z,10.92
2023-05-17T09:23:02.707Z,10.93
2023-05-17T09:25:39.664Z,10.82
2023-05-17T09:28:08.911Z,10.89
2023-05-17T09:30:47.109Z,11.04
2023-05-17T09:33:21.605Z,10.74
2023-05-17T09:35:54.183Z,10.67
2023-05-17T09:38:32.452Z,10.77
2023-05-17T09:41:11.220Z,10.79
2023-05-17T09:43:40.240Z,10.95
2023-05-17T09:46:16.856Z,11.08
2023-05-17T09:48:57.148Z,10.62
2023-05-17T09:51:38.360Z,10.83
2023-05-17T09:54:10.298Z,10.85
2023-05-17T09:56:54.651Z,10.89
2023-05-17T09:59:23.738Z,10.71
2023-05-17T10:01:52.477Z,10.50
2023-05-17T10:04:25.983Z,10.67
2023-05-17T10:06:56.609Z,10.62
2023-05-17T10:09:25.797Z,10.67
2023-05-17T10:12:16.833Z,10.73
2023-05-17T10:14:46.383Z,10.72
2023-05-17T10:17:19.917Z,10.72
2023-05-17T10:19:51.397Z,10.48
2023-05-17T10:22:24.154Z,10.91
2023-05-17T10:24:52.838Z,10.82
2023-05-17T10:27:24.437Z,10.82
2023-05-17T10:29:57.237Z,10.76
2023-05-17T10:32:28.603Z,10.63
2023-05-17T10:35:10.129Z,10.76
2023-05-17T10:37:43.842Z,10.72
2023-05-17T10:40:20.021Z,10.93
2023-05-17T10:43:01.550Z,10.73
2023-05-17T10:45:41.018Z,10.85
2023-05-17T10:48:10.373Z,10.62
2023-05-17T10:51:00.627Z,10.59
2023-05-17T10:53:31.115Z,10.76
2023-05-17T10:56:01.894Z,10.77
2023-05-17T10:58:33.557Z,10.75
2023-05-17T11:01:03.214Z,10.85
2023-05-17T11:03:34.687Z,10.87
2023-05-17T11:06:25.180Z,10.87
2023-05-17T11:09:10.852Z,10.86
2023-05-17T11:12:10.558Z,10.78
2023-05-17T11:14:51.126Z,10.97
2023-05-17T11:17:21.960Z,10.91
2023-05-17T11:19:56.676Z,10.92
2023-05-17T11:22:26.797Z,10.69
2023-05-17T11:24:58.829Z,11.03
2023-05-17T11:27:29.706Z,11.01
2023-05-17T11:30:11.053Z,11.05
2023-05-17T11:32:40.670Z,10.72
2023-05-17T11:35:17.045Z,10.96
2023-05-17T11:37:48.645Z,10.75
2023-05-17T11:40:28.684Z,10.65
2023-05-17T11:43:14.870Z,10.66
2023-05-17T11:45:53.157Z,10.85
2023-05-17T11:48:25.855Z,10.82
2023-05-17T11:51:00.626Z,10.84
2023-05-17T11:53:39.316Z,10.73
2023-05-17T11:56:10.408Z,10.80
2023-05-17T11:58:47.407Z,10.94
2023-05-17T12:01:19.457Z,10.82
2023-05-17T12:03:48.890Z,10.82
2023-05-17T12:06:21.245Z,10.84
2023-05-17T12:08:52.879Z,10.74
2023-05-17T12:11:23.986Z,10.78
2023-05-17T12:13:53.650Z,10.62
2023-05-17T12:16:24.170Z,10.71
2023-05-17T12:18:55.450Z,10.63
2023-05-17T12:21:30.921Z,10.73
2023-05-17T12:24:02.780Z,10.87
2023-05-17T12:26:34.428Z,10.85
2023-05-17T12:29:05.630Z,10.74
2023-05-17T12:31:44.791Z,10.94
2023-05-17T12:34:22.140Z,10.97
2023-05-17T12:36:54.997Z,10.91
2023-05-17T12:39:26.938Z,10.70
2023-05-17T12:41:56.097Z,10.83
2023-05-17T12:44:27.606Z,10.79
2023-05-17T12:46:58.063Z,10.74
2023-05-17T12:49:27.507Z,10.71
2023-05-17T12:51:57.841Z,10.78
2023-05-17T12:54:30.561Z,10.84
2023-05-17T12:57:00.836Z,10.71
2023-05-17T12:59:36.560Z,10.82
2023-05-17T13:02:06.486Z,10.83
2023-05-17T13:04:39.344Z,10.88
2023-05-17T13:07:07.866Z,10.94
2023-05-17T13:09:50.639Z,11.01
2023-05-17T13:12:27.238Z,10.96
2023-05-17T13:15:00.047Z,10.98
2023-05-17T13:17:46.985Z,10.97
2023-05-17T13:20:22.584Z,10.90
2023-05-17T13:22:51.232Z,11.02
2023-05-17T13:25:23.902Z,10.92
2023-05-17T13:27:55.493Z,10.60
2023-05-17T13:30:26.260Z,10.75
2023-05-17T13:32:59.089Z,10.78
2023-05-17T13:35:32.188Z,10.89
2023-05-17T13:38:03.981Z,10.65
2023-05-17T13:40:36.055Z,10.59
2023-05-17T13:43:09.981Z,10.75
2023-05-17T13:45:39.774Z,10.67
2023-05-17T13:48:10.515Z,10.72
2023-05-17T13:50:39.763Z,10.64
2023-05-17T13:53:13.589Z,10.68
2023-05-17T13:55:43.111Z,10.73
2023-05-17T13:58:12.041Z,10.73
2023-05-17T14:00:43.107Z,10.85
2023-05-17T14:03:14.790Z,10.60
2023-05-17T14:05:50.558Z,10.65
2023-05-17T14:08:21.290Z,10.93
2023-05-17T14:10:51.971Z,10.99
2023-05-17T14:13:21.102Z,10.94
2023-05-17T14:15:52.748Z,11.16
2023-05-17T14:18:22.420Z,10.83
2023-05-17T14:20:53.298Z,10.94
2023-05-17T14:23:22.667Z,11.07
2023-05-17T14:25:52.133Z,10.73
2023-05-17T14:28:20.877Z,10.81
2023-05-17T14:30:48.867Z,10.69
2023-05-17T14:33:22.339Z,10.76
2023-05-17T14:35:53.443Z,10.78
2023-05-17T14:38:22.980Z,10.77
2023-05-17T14:40:52.219Z,10.81
2023-05-17T14:43:23.564Z,10.76
2023-05-17T14:45:53.997Z,10.64
2023-05-17T14:48:25.363Z,10.68
2023-05-17T14:50:59.526Z,10.82
2023-05-17T14:53:29.796Z,10.93
2023-05-17T14:55:59.440Z,10.84
2023-05-17T14:58:29.354Z,10.73
2023-05-17T15:01:05.797Z,10.91
2023-05-17T15:03:37.418Z,10.83
2023-05-17T15:06:20.970Z,10.70
2023-05-17T15:08:58.015Z,10.69
2023-05-17T15:11:27.252Z,10.93
2023-05-17T15:13:59.489Z,11.01
2023-05-17T15:16:30.279Z,10.82
2023-05-17T15:19:00.994Z,10.98
2023-05-17T15:21:34.283Z,11.04
2023-05-17T15:24:05.830Z,11.16
2023-05-17T15:26:37.149Z,10.93
2023-05-17T15:29:06.619Z,11.05
2023-05-17T15:31:35.239Z,10.78
2023-05-17T15:34:08.907Z,10.91
2023-05-17T15:36:46.763Z,11.00
2023-05-17T15:39:16.299Z,10.84
2023-05-17T15:41:45.929Z,10.96
2023-05-17T15:44:18.785Z,10.87
2023-05-17T15:46:50.638Z,10.78
2023-05-17T15:49:20.961Z,10.91
2023-05-17T15:51:52.890Z,10.68
2023-05-17T15:54:21.476Z,10.79
2023-05-17T15:56:51.101Z,10.74
2023-05-17T15:59:21.607Z,10.77
2023-05-17T16:01:52.117Z,10.89
2023-05-17T16:04:21.537Z,10.78
2023-05-17T16:06:51.384Z,10.86
2023-05-17T16:09:20.810Z,10.86
2023-05-17T16:11:51.330Z,10.69
2023-05-17T16:14:28.565Z,10.82
2023-05-17T16:16:59.346Z,10.74
2023-05-17T16:19:34.296Z,10.99
2023-05-17T16:22:10.302Z,10.75
2023-05-17T16:24:42.257Z,10.69
2023-05-17T16:27:11.969Z,10.84
2023-05-17T16:29:45.724Z,10.92
2023-05-17T16:32:19.886Z,10.94
2023-05-17T16:34:52.720Z,11.00
2023-05-17T16:37:22.803Z,10.90
2023-05-17T16:39:55.398Z,10.75
2023-05-17T16:42:26.646Z,10.98
2023-05-17T16:45:01.982Z,10.85
2023-05-17T16:47:34.400Z,10.92
2023-05-17T16:50:05.917Z,10.85
2023-05-17T16:52:38.566Z,10.76
2023-05-17T16:55:08.722Z,10.78
2023-05-17T16:57:41.093Z,10.79
2023-05-17T17:00:21.199Z,10.90
2023-05-17T17:02:52.072Z,11.00
2023-05-17T17:05:21.847Z,10.98
2023-05-17T17:07:59.955Z,10.99
2023-05-17T17:10:30.501Z,10.77
2023-05-17T17:13:05.158Z,11.01
2023-05-17T17:15:38.135Z,10.95
2023-05-17T17:18:17.078Z,10.88
2023-05-17T17:20:47.042Z,10.79
2023-05-17T17:23:38.557Z,10.88
2023-05-17T17:26:14.444Z,10.82
2023-05-17T17:28:48.248Z,10.90
2023-05-17T17:31:23.524Z,11.03
2023-05-17T17:33:55.208Z,10.91
2023-05-17T17:36:33.973Z,10.82
2023-05-17T17:39:22.407Z,10.81
2023-05-17T17:42:02.838Z,10.93
2023-05-17T17:44:41.627Z,10.86
2023-05-17T17:47:19.790Z,10.65
2023-05-17T17:49:50.520Z,10.85
2023-05-17T17:52:24.267Z,10.62
2023-05-17T17:54:55.011Z,10.51
2023-05-17T17:57:25.645Z,10.81
2023-05-17T17:59:56.962Z,10.71
2023-05-17T18:02:28.415Z,10.71
2023-05-17T18:04:59.166Z,10.64
2023-05-17T18:07:34.606Z,10.57
2023-05-17T18:10:09.638Z,10.82
2023-05-17T18:12:50.944Z,10.63
2023-05-17T18:15:24.794Z,10.58
2023-05-17T18:17:59.260Z,10.66
2023-05-17T18:20:30.459Z,10.60
2023-05-17T18:23:12.348Z,10.75
2023-05-17T18:25:51.325Z,10.86
2023-05-17T18:28:30.044Z,10.74
2023-05-17T18:31:17.164Z,10.85
2023-05-17T18:33:53.211Z,10.62
2023-05-17T18:36:25.054Z,10.70
2023-05-17T18:39:01.267Z,10.57
2023-05-17T18:41:48.538Z,10.49
2023-05-17T18:44:20.428Z,10.53
2023-05-17T18:46:57.627Z,10.40
2023-05-17T18:49:43.063Z,10.47
2023-05-17T18:52:17.859Z,10.50
2023-05-17T18:54:58.616Z,10.74
2023-05-17T18:57:40.316Z,10.46
2023-05-17T19:00:25.068Z,10.72
2023-05-17T19:03:09.180Z,10.67
2023-05-17T19:05:54.703Z,10.49
2023-05-17T19:08:26.399Z,10.70
2023-05-17T19:11:01.904Z,10.70
2023-05-17T19:16:43.812Z,10.76
2023-05-17T19:19:15.961Z,10.62
2023-05-17T19:21:56.713Z,10.51
2023-05-17T19:24:26.223Z,10.30
2023-05-17T19:26:56.067Z,10.47
2023-05-17T19:29:29.517Z,10.48
2023-05-17T19:32:01.824Z,10.57
2023-05-17T19:34:30.778Z,10.82
2023-05-17T19:37:02.617Z,10.65
2023-05-17T19:39:33.584Z,10.64
2023-05-17T19:42:06.991Z,10.60
2023-05-17T19:44:39.396Z,10.67
2023-05-17T19:47:10.477Z,10.74
2023-05-17T19:49:56.863Z,10.59
2023-05-17T19:52:29.830Z,10.56
2023-05-17T19:55:06.447Z,10.52
2023-05-17T19:57:37.261Z,10.60
2023-05-17T20:00:18.627Z,10.53
2023-05-17T20:03:02.090Z,10.72
2023-05-17T20:05:45.029Z,10.64
2023-05-17T20:08:20.543Z,10.63
2023-05-17T20:10:58.249Z,10.45
2023-05-17T20:13:29.408Z,10.47
2023-05-17T20:16:18.789Z,10.68
2023-05-17T20:18:50.954Z,10.69
2023-05-17T20:21:27.604Z,10.68
2023-05-17T20:24:04.750Z,10.70
2023-05-17T20:26:39.414Z,10.42
2023-05-17T20:29:09.441Z,10.47
2023-05-17T20:31:56.741Z,10.52
2023-05-17T20:34:30.624Z,10.44
2023-05-17T20:37:10.771Z,10.57
2023-05-17T20:39:50.762Z,10.67
2023-05-17T20:42:30.055Z,10.47
2023-05-17T20:45:06.167Z,10.79
2023-05-17T20:47:50.571Z,10.78
2023-05-17T20:50:25.706Z,10.72
2023-05-17T20:52:58.581Z,10.90
2023-05-17T20:55:33.651Z,10.75
2023-05-17T20:58:10.416Z,10.64
2023-05-17T21:00:39.996Z,10.86
2023-05-17T21:03:21.644Z,10.85
2023-05-17T21:05:54.858Z,10.82
2023-05-17T21:08:24.850Z,10.77
2023-05-17T21:11:02.113Z,10.79
2023-05-17T21:13:32.476Z,10.66
2023-05-17T21:16:03.350Z,10.69
2023-05-17T21:18:40.409Z,10.70
2023-05-17T21:24:03.119Z,10.59
2023-05-17T21:26:35.367Z,10.68
2023-05-17T21:29:07.921Z,10.89
2023-05-17T21:31:39.995Z,10.71
2023-05-17T21:34:25.986Z,10.71
2023-05-17T21:37:08.788Z,10.66
2023-05-17T21:39:42.882Z,10.73
2023-05-17T21:42:16.152Z,10.46
2023-05-17T21:44:45.536Z,10.72
2023-05-17T21:47:18.227Z,10.68
2023-05-17T21:49:50.429Z,10.61
2023-05-17T21:52:27.399Z,10.75
2023-05-17T21:54:59.222Z,10.83
2023-05-17T21:57:30.904Z,10.70
2023-05-17T22:00:03.630Z,11.00
2023-05-17T22:02:41.215Z,10.92
2023-05-17T22:05:18.944Z,10.75
2023-05-17T22:07:56.852Z,10.89
2023-05-17T22:10:30.979Z,10.91
2023-05-17T22:13:05.664Z,11.02
2023-05-17T22:15:35.949Z,10.77
2023-05-17T22:18:05.988Z,10.96
2023-05-17T22:20:47.016Z,10.91
2023-05-17T22:23:17.971Z,11.03
2023-05-17T22:25:52.220Z,10.89
2023-05-17T22:28:23.676Z,11.04
2023-05-17T22:30:54.122Z,10.98
2023-05-17T22:33:25.414Z,10.83
2023-05-17T22:36:02.894Z,10.94
2023-05-17T22:38:40.441Z,10.82
2023-05-17T22:41:09.437Z,10.92
2023-05-17T22:43:40.209Z,10.90
2023-05-17T22:46:08.646Z,10.90
2023-05-17T22:48:40.584Z,10.82
2023-05-17T22:51:22.705Z,10.82
2023-05-17T22:53:55.430Z,10.95
2023-05-17T22:56:28.813Z,10.92
2023-05-17T22:58:58.938Z,11.02
2023-05-17T23:01:28.871Z,10.85
2023-05-17T23:04:10.904Z,10.91
2023-05-17T23:06:48.641Z,10.80
2023-05-17T23:09:24.263Z,10.90
2023-05-17T23:11:56.055Z,10.67
2023-05-17T23:14:26.956Z,10.67
2023-05-17T23:17:02.581Z,10.65
2023-05-17T23:19:33.957Z,10.77
2023-05-17T23:22:07.159Z,10.71
2023-05-17T23:24:38.764Z,10.82
2023-05-17T23:27:11.741Z,10.83
2023-05-17T23:29:42.009Z,10.71
2023-05-17T23:32:10.388Z,10.93
2023-05-17T23:34:48.781Z,10.89
2023-05-17T23:37:24.201Z,10.71
2023-05-17T23:39:56.170Z,10.88
2023-05-17T23:42:27.456Z,10.74
2023-05-17T23:45:08.775Z,10.79
2023-05-17T23:47:40.943Z,10.73
2023-05-17T23:50:26.491Z,10.70
2023-05-17T23:52:57.178Z,10.65
2023-05-17T23:55:34.846Z,10.86
2023-05-17T23:58:03.451Z,10.52
